Time;durP1;ratioP1;P1;durP2;ratioP2;P2;SDS_P1;SDS_P2;PMS_P1;PMS_P2;Temp;Humidity;BMP_temperature;BMP_pressure;BME280_temperature;BME280_humidity;BME280_pressure;Samples;Min_cycle;Max_cycle;Signal;HPM_P1;HPM_P2
2022/09/30 00:02:17;;;;;;;583.00;381.05;;;12.30;99.90;;;;;;5003915;28;20193;-80
2022/09/30 00:04:45;;;;;;;587.33;389.70;;;12.30;99.90;;;;;;5007652;28;20193;-79
2022/09/30 00:07:11;;;;;;;586.13;381.30;;;12.30;99.90;;;;;;5012007;28;20708;-80
2022/09/30 00:09:38;;;;;;;586.55;385.27;;;12.30;99.90;;;;;;5003196;28;20196;-77
2022/09/30 00:12:05;;;;;;;573.22;356.52;;;12.30;99.90;;;;;;5006978;28;20223;-77
2022/09/30 00:14:32;;;;;;;580.67;373.23;;;12.20;99.90;;;;;;4998152;28;20197;-77
2022/09/30 00:16:59;;;;;;;584.15;377.38;;;12.30;99.90;;;;;;5007611;28;20216;-77
2022/09/30 00:19:26;;;;;;;574.70;372.23;;;12.30;99.90;;;;;;5010706;28;20196;-77
2022/09/30 00:21:54;;;;;;;576.72;382.40;;;12.20;99.90;;;;;;5009854;28;20193;-77
2022/09/30 00:24:21;;;;;;;573.22;381.15;;;12.20;99.90;;;;;;5012290;28;20189;-77
2022/09/30 00:26:47;;;;;;;557.03;366.55;;;12.20;99.90;;;;;;5012077;28;20239;-77
2022/09/30 00:29:14;;;;;;;582.83;386.52;;;12.20;99.90;;;;;;5011428;28;20611;-76
2022/09/30 00:31:41;;;;;;;578.97;380.58;;;12.20;99.90;;;;;;5008627;28;20203;-76
2022/09/30 00:34:07;;;;;;;581.55;373.98;;;12.20;99.90;;;;;;5007005;28;20200;-78
2022/09/30 00:36:37;;;;;;;581.80;367.58;;;12.20;99.90;;;;;;5007860;28;20208;-78
2022/09/30 00:39:06;;;;;;;585.63;381.95;;;12.20;99.90;;;;;;5011804;28;20189;-79
2022/09/30 00:41:33;;;;;;;582.47;373.25;;;12.20;99.90;;;;;;5011758;28;20195;-79
2022/09/30 00:44:00;;;;;;;582.03;368.30;;;12.10;99.90;;;;;;5011581;28;20193;-79
2022/09/30 00:46:34;;;;;;;583.85;373.38;;;12.10;99.90;;;;;;5008882;28;20229;-79
2022/09/30 00:49:06;;;;;;;582.10;362.88;;;12.10;99.90;;;;;;5007309;28;20219;-79
2022/09/30 00:51:37;;;;;;;586.55;370.27;;;12.10;99.90;;;;;;5010701;28;20203;-77
2022/09/30 00:54:10;;;;;;;584.92;368.25;;;12.10;99.90;;;;;;5002249;28;20201;-79
2022/09/30 00:56:42;;;;;;;581.65;368.23;;;12.10;99.90;;;;;;5011560;28;20204;-77
2022/09/30 00:59:13;;;;;;;582.00;361.27;;;12.10;99.90;;;;;;5013473;28;20189;-77
2022/09/30 01:01:41;;;;;;;559.38;370.15;;;12.00;99.90;;;;;;5008393;28;20216;-77
2022/09/30 01:04:13;;;;;;;552.15;345.67;;;12.00;99.90;;;;;;5010304;28;20201;-77
2022/09/30 01:06:40;;;;;;;580.25;367.23;;;12.00;99.90;;;;;;5008047;28;20579;-77
2022/09/30 01:09:09;;;;;;;580.30;370.02;;;12.00;99.90;;;;;;5005349;28;20192;-76
2022/09/30 01:11:36;;;;;;;579.45;363.35;;;12.00;99.90;;;;;;5011167;28;20207;-76
2022/09/30 01:14:06;;;;;;;583.55;364.83;;;12.00;99.90;;;;;;5011265;28;20439;-78
2022/09/30 01:16:44;;;;;;;582.22;366.65;;;12.00;99.90;;;;;;5005123;28;20220;-77
2022/09/30 01:19:36;;;;;;;578.13;352.48;;;12.00;99.90;;;;;;5008650;28;20203;-78
2022/09/30 01:22:26;;;;;;;580.15;355.33;;;12.00;99.90;;;;;;5010101;28;20234;-76
2022/09/30 01:25:31;;;;;;;581.08;356.67;;;12.00;99.90;;;;;;5002629;28;20655;-78
2022/09/30 01:28:17;;;;;;;583.50;354.85;;;11.90;99.90;;;;;;5004789;28;20671;-78
2022/09/30 01:31:04;;;;;;;590.97;361.33;;;11.90;99.90;;;;;;5006656;28;20197;-79
2022/09/30 01:33:42;;;;;;;592.58;354.20;;;11.90;99.90;;;;;;5006558;28;20204;-78
2022/09/30 01:36:36;;;;;;;565.33;358.08;;;11.90;99.90;;;;;;5006174;28;20204;-76
2022/09/30 01:39:17;;;;;;;559.25;346.75;;;11.90;99.90;;;;;;5009328;28;20196;-77
2022/09/30 01:41:51;;;;;;;561.97;355.10;;;11.90;99.90;;;;;;5011965;28;20540;-76
2022/09/30 01:44:25;;;;;;;587.75;352.80;;;11.90;99.90;;;;;;5009537;28;20197;-76
2022/09/30 01:46:58;;;;;;;593.83;357.75;;;11.90;99.90;;;;;;5010111;28;20707;-76
2022/09/30 01:49:32;;;;;;;599.30;364.63;;;11.90;99.90;;;;;;5009385;28;20216;-77
2022/09/30 01:52:05;;;;;;;595.10;348.63;;;11.90;99.90;;;;;;5008961;28;20203;-76
2022/09/30 01:54:37;;;;;;;597.22;350.35;;;11.80;99.90;;;;;;5007253;28;20201;-78
2022/09/30 01:57:10;;;;;;;606.53;363.50;;;11.80;99.90;;;;;;5012316;28;20196;-77
2022/09/30 01:59:44;;;;;;;613.53;360.55;;;11.80;99.90;;;;;;5009413;28;20197;-77
2022/09/30 02:02:18;;;;;;;643.80;335.02;;;11.80;99.90;;;;;;5008273;28;20655;-76
2022/09/30 02:04:49;;;;;;;677.42;361.60;;;11.80;99.90;;;;;;5012015;28;20215;-77
2022/09/30 02:07:21;;;;;;;675.80;358.02;;;11.80;99.90;;;;;;5007879;28;20223;-76
2022/09/30 02:09:53;;;;;;;676.15;350.17;;;11.80;99.90;;;;;;5002573;28;20196;-77
2022/09/30 02:12:22;;;;;;;675.20;352.88;;;11.80;99.90;;;;;;5011149;28;20291;-76
2022/09/30 02:14:53;;;;;;;677.83;363.85;;;11.70;99.90;;;;;;5011003;28;20200;-76
2022/09/30 02:17:28;;;;;;;672.60;338.52;;;11.70;99.90;;;;;;5004376;28;20220;-76
2022/09/30 02:19:59;;;;;;;674.78;346.77;;;11.70;99.90;;;;;;5007509;28;20559;-80
2022/09/30 02:22:30;;;;;;;675.10;360.02;;;11.70;99.90;;;;;;5001335;28;20201;-81
2022/09/30 02:25:01;;;;;;;675.63;359.40;;;11.70;99.90;;;;;;5003082;28;20197;-81
2022/09/30 02:27:41;;;;;;;675.78;354.33;;;11.70;99.90;;;;;;5008898;28;20231;-80
2022/09/30 02:30:10;;;;;;;678.13;360.02;;;11.70;99.90;;;;;;5002784;28;20203;-79
2022/09/30 02:32:44;;;;;;;675.28;346.98;;;11.70;99.90;;;;;;5006566;28;20207;-82
2022/09/30 02:35:17;;;;;;;674.60;347.92;;;11.70;99.90;;;;;;5000696;28;20208;-80
2022/09/30 02:37:49;;;;;;;673.53;342.30;;;11.70;99.90;;;;;;5006424;28;20200;-78
2022/09/30 02:40:22;;;;;;;673.70;354.45;;;11.70;99.90;;;;;;5005090;28;20674;-82
2022/09/30 02:42:48;;;;;;;681.45;357.15;;;11.60;99.90;;;;;;5010905;28;20192;-78
2022/09/30 02:45:19;;;;;;;672.08;339.65;;;11.60;99.90;;;;;;5003311;28;20193;-78
2022/09/30 02:47:58;;;;;;;674.80;347.40;;;11.60;99.90;;;;;;5006654;28;20706;-77
2022/09/30 02:50:31;;;;;;;668.75;323.85;;;11.60;99.90;;;;;;4997614;28;20227;-80
2022/09/30 02:53:08;;;;;;;676.03;343.73;;;11.60;99.90;;;;;;5009128;28;20344;-78
2022/09/30 02:55:48;;;;;;;674.85;355.10;;;11.60;99.90;;;;;;5007484;28;20246;-78
2022/09/30 02:58:17;;;;;;;671.40;340.50;;;11.60;99.90;;;;;;5007986;28;20200;-78
2022/09/30 03:00:44;;;;;;;670.95;332.83;;;11.60;99.90;;;;;;5006890;28;20192;-77
2022/09/30 03:03:16;;;;;;;673.03;347.92;;;11.60;99.90;;;;;;4996100;28;20205;-78
2022/09/30 03:05:43;;;;;;;674.78;354.77;;;11.60;99.90;;;;;;5009328;28;20192;-79
2022/09/30 03:08:11;;;;;;;672.95;341.27;;;11.60;99.90;;;;;;5008601;28;20212;-78
2022/09/30 03:10:38;;;;;;;674.35;348.42;;;11.50;99.90;;;;;;5007528;28;20200;-80
2022/09/30 03:13:26;;;;;;;673.60;338.92;;;11.50;99.90;;;;;;5005813;28;20197;-83
2022/09/30 03:16:11;;;;;;;665.72;314.23;;;11.50;99.90;;;;;;4997985;28;20189;-78
2022/09/30 03:18:57;;;;;;;670.22;327.23;;;11.50;99.90;;;;;;5001132;28;20231;-79
2022/09/30 03:21:41;;;;;;;672.05;339.20;;;11.50;99.90;;;;;;5002912;28;20203;-80
2022/09/30 03:24:31;;;;;;;672.30;344.20;;;11.50;99.90;;;;;;5003769;28;20197;-79
2022/09/30 03:27:11;;;;;;;673.45;347.25;;;11.50;99.90;;;;;;5009033;28;20706;-80
2022/09/30 03:29:47;;;;;;;672.80;340.40;;;11.50;99.90;;;;;;5009067;28;20203;-80
2022/09/30 03:32:27;;;;;;;671.33;328.42;;;11.40;99.90;;;;;;5001093;28;20201;-80
2022/09/30 03:35:09;;;;;;;674.15;356.05;;;11.40;99.90;;;;;;5010362;28;20196;-81
2022/09/30 03:37:46;;;;;;;669.70;334.55;;;11.40;99.90;;;;;;5000456;28;20568;-81
2022/09/30 03:40:23;;;;;;;674.63;336.67;;;11.40;99.90;;;;;;5010844;28;20203;-78
2022/09/30 03:42:56;;;;;;;671.13;343.35;;;11.40;99.90;;;;;;5013011;28;20195;-80
2022/09/30 03:45:28;;;;;;;671.67;337.00;;;11.40;99.90;;;;;;5009414;28;20192;-78
2022/09/30 03:47:59;;;;;;;674.28;345.17;;;11.40;99.90;;;;;;5009823;28;20220;-77
2022/09/30 03:50:30;;;;;;;671.10;344.60;;;11.40;99.90;;;;;;5009876;28;20259;-78
2022/09/30 03:52:57;;;;;;;671.50;342.23;;;11.40;99.90;;;;;;5009121;28;20696;-80
2022/09/30 03:55:24;;;;;;;673.53;337.77;;;11.40;99.90;;;;;;5005455;28;20557;-78
2022/09/30 03:57:53;;;;;;;671.15;341.38;;;11.40;99.90;;;;;;5012399;28;20683;-78
2022/09/30 04:00:19;;;;;;;677.25;358.88;;;11.40;99.90;;;;;;5008327;28;20216;-78
2022/09/30 04:02:47;;;;;;;675.97;349.77;;;11.30;99.90;;;;;;5005105;28;20200;-78
2022/09/30 04:05:13;;;;;;;669.17;335.23;;;11.30;99.90;;;;;;5013868;28;20200;-78
2022/09/30 04:07:41;;;;;;;675.17;352.42;;;11.30;99.90;;;;;;5007116;28;20379;-78
2022/09/30 04:10:09;;;;;;;672.70;341.98;;;11.30;99.90;;;;;;5005113;28;20553;-78
2022/09/30 04:12:35;;;;;;;669.85;327.65;;;11.30;99.90;;;;;;5010297;28;20209;-76
2022/09/30 04:15:02;;;;;;;673.95;341.98;;;11.30;99.90;;;;;;5000390;28;20560;-78
2022/09/30 04:17:29;;;;;;;677.58;345.98;;;11.30;99.90;;;;;;5005611;28;20224;-80
2022/09/30 04:19:56;;;;;;;676.50;346.98;;;11.30;99.90;;;;;;5011491;28;20203;-79
2022/09/30 04:22:22;;;;;;;672.58;338.42;;;11.30;99.90;;;;;;5010142;28;20197;-77
2022/09/30 04:24:50;;;;;;;672.80;337.20;;;11.30;99.90;;;;;;5010180;28;20193;-78
2022/09/30 04:27:17;;;;;;;676.03;349.83;;;11.30;99.90;;;;;;5012400;28;20223;-79
2022/09/30 04:29:44;;;;;;;675.40;346.30;;;11.20;99.90;;;;;;5009784;28;20196;-77
2022/09/30 04:32:11;;;;;;;670.33;338.90;;;11.20;99.90;;;;;;5007298;28;20193;-79
2022/09/30 04:34:37;;;;;;;672.65;343.45;;;11.20;99.90;;;;;;5012659;28;20197;-78
2022/09/30 04:37:04;;;;;;;673.17;337.45;;;11.20;99.90;;;;;;5012100;28;20204;-78
2022/09/30 04:39:31;;;;;;;669.70;321.75;;;11.20;99.90;;;;;;5008261;28;20192;-82
2022/09/30 04:41:59;;;;;;;671.85;337.35;;;11.20;99.90;;;;;;5009211;28;20211;-77
2022/09/30 04:44:26;;;;;;;674.55;348.88;;;11.20;99.90;;;;;;5011971;28;20209;-80
2022/09/30 04:46:53;;;;;;;669.65;326.92;;;11.20;99.90;;;;;;5007617;28;20308;-80
2022/09/30 04:49:19;;;;;;;672.40;335.60;;;11.20;99.90;;;;;;5006002;28;20220;-79
2022/09/30 04:51:47;;;;;;;670.70;332.83;;;11.20;99.90;;;;;;5007381;28;20208;-79
2022/09/30 04:54:15;;;;;;;670.78;336.48;;;11.20;99.90;;;;;;5004214;28;20201;-79
2022/09/30 04:56:42;;;;;;;669.53;336.60;;;11.10;99.90;;;;;;5012326;28;20694;-79
2022/09/30 04:59:10;;;;;;;670.95;332.92;;;11.10;99.90;;;;;;5013000;28;20211;-80
2022/09/30 05:01:38;;;;;;;669.28;320.25;;;11.10;99.90;;;;;;5008752;28;20200;-79
2022/09/30 05:04:05;;;;;;;671.45;332.67;;;11.10;99.90;;;;;;5000592;28;20193;-80
2022/09/30 05:06:31;;;;;;;671.67;336.17;;;11.10;99.90;;;;;;5011263;28;20215;-80
2022/09/30 05:08:58;;;;;;;669.58;334.48;;;11.10;99.90;;;;;;4999835;28;20714;-80
2022/09/30 05:11:25;;;;;;;665.13;303.98;;;11.10;99.90;;;;;;5005063;28;20520;-80
2022/09/30 05:13:51;;;;;;;672.72;343.02;;;11.10;99.90;;;;;;5010813;28;20675;-83
2022/09/30 05:16:20;;;;;;;668.83;318.50;;;11.10;99.90;;;;;;5006631;28;20217;-77
2022/09/30 05:18:48;;;;;;;669.95;340.88;;;11.00;99.90;;;;;;5003400;28;20729;-78
2022/09/30 05:21:17;;;;;;;670.72;338.58;;;11.00;99.90;;;;;;5005840;28;20473;-78
2022/09/30 05:23:43;;;;;;;676.10;346.83;;;11.00;99.90;;;;;;5009194;28;20197;-77
2022/09/30 05:26:10;;;;;;;670.47;331.83;;;11.00;99.90;;;;;;5005384;28;20201;-78
2022/09/30 05:28:37;;;;;;;672.70;341.40;;;11.00;99.90;;;;;;5001898;28;20696;-79
2022/09/30 05:31:05;;;;;;;664.65;305.50;;;11.00;99.90;;;;;;5001401;28;20192;-78
2022/09/30 05:33:34;;;;;;;662.33;301.20;;;11.00;99.90;;;;;;5007038;28;20204;-77
2022/09/30 05:36:03;;;;;;;668.67;329.75;;;11.00;99.90;;;;;;5003956;28;20208;-77
2022/09/30 05:38:30;;;;;;;665.22;311.48;;;11.00;99.90;;;;;;5006964;28;20316;-76
2022/09/30 05:40:57;;;;;;;662.42;300.92;;;11.00;99.90;;;;;;5004062;28;20226;-76
2022/09/30 05:43:23;;;;;;;663.17;301.38;;;11.00;99.90;;;;;;5005690;28;20266;-77
2022/09/30 05:45:54;;;;;;;663.42;306.67;;;11.00;99.90;;;;;;5011012;28;20193;-76
2022/09/30 05:48:22;;;;;;;666.55;313.00;;;11.00;99.90;;;;;;5010268;28;20447;-76
2022/09/30 05:50:54;;;;;;;664.25;301.40;;;10.90;99.90;;;;;;5010266;28;20215;-77
2022/09/30 05:53:20;;;;;;;671.40;328.33;;;10.90;99.90;;;;;;5011281;28;20202;-77
2022/09/30 05:55:49;;;;;;;664.25;313.38;;;10.90;99.90;;;;;;5011744;28;20639;-79
2022/09/30 05:58:16;;;;;;;664.60;314.13;;;10.90;99.90;;;;;;5011871;28;20224;-77
2022/09/30 06:00:44;;;;;;;670.83;328.27;;;10.90;99.90;;;;;;5009879;28;20204;-77
2022/09/30 06:03:12;;;;;;;666.17;313.08;;;10.90;99.90;;;;;;5009649;28;20189;-77
2022/09/30 06:05:39;;;;;;;668.05;325.77;;;10.90;99.90;;;;;;5005863;28;20219;-77
2022/09/30 06:08:07;;;;;;;665.28;310.00;;;10.90;99.90;;;;;;5002796;28;20216;-77
2022/09/30 06:10:34;;;;;;;667.85;315.17;;;10.90;99.90;;;;;;5008773;28;20193;-78
2022/09/30 06:13:02;;;;;;;668.60;327.33;;;10.90;99.90;;;;;;5003457;28;20479;-78
2022/09/30 06:15:29;;;;;;;666.50;313.88;;;10.90;99.90;;;;;;5007405;28;20560;-78
2022/09/30 06:17:56;;;;;;;668.58;324.88;;;10.90;99.90;;;;;;5011035;28;20683;-77
2022/09/30 06:20:23;;;;;;;669.13;326.90;;;10.90;99.90;;;;;;5007518;28;20198;-78
2022/09/30 06:22:49;;;;;;;662.45;295.88;;;10.90;99.90;;;;;;5010916;28;20196;-78
2022/09/30 06:25:17;;;;;;;669.53;336.00;;;11.00;99.90;;;;;;5008534;28;20192;-78
2022/09/30 06:27:46;;;;;;;671.88;329.15;;;11.00;99.90;;;;;;5009523;28;20224;-78
2022/09/30 06:30:13;;;;;;;671.17;334.30;;;11.10;99.90;;;;;;5000719;28;20579;-78
2022/09/30 06:32:41;;;;;;;675.50;340.25;;;11.20;99.90;;;;;;5009121;28;20201;-78
2022/09/30 06:35:09;;;;;;;667.67;312.67;;;11.20;99.90;;;;;;5010667;28;20188;-78
2022/09/30 06:37:36;;;;;;;671.55;334.63;;;11.30;99.90;;;;;;5010548;28;20207;-78
2022/09/30 06:40:03;;;;;;;672.38;336.75;;;11.30;99.90;;;;;;5003927;28;20196;-78
2022/09/30 06:42:31;;;;;;;670.33;334.45;;;11.40;99.90;;;;;;5003697;28;20699;-80
2022/09/30 06:44:58;;;;;;;670.67;327.20;;;11.40;99.90;;;;;;4998622;28;20193;-81
2022/09/30 06:47:25;;;;;;;668.50;333.35;;;11.40;99.90;;;;;;5005128;28;20196;-80
2022/09/30 06:49:57;;;;;;;666.65;328.38;;;11.40;99.90;;;;;;5008741;28;20298;-80
2022/09/30 06:52:24;;;;;;;674.95;352.17;;;11.40;99.90;;;;;;5010060;28;20235;-79
2022/09/30 06:54:51;;;;;;;669.58;337.98;;;11.40;99.90;;;;;;5008128;28;20203;-80
2022/09/30 06:57:21;;;;;;;672.00;340.70;;;11.40;99.90;;;;;;5008454;28;20192;-79
2022/09/30 06:59:49;;;;;;;669.42;337.95;;;11.40;99.90;;;;;;5010075;28;20224;-81
2022/09/30 07:02:16;;;;;;;676.15;358.30;;;11.50;99.90;;;;;;5001406;28;20283;-80
2022/09/30 07:04:43;;;;;;;673.70;343.02;;;11.60;99.90;;;;;;5001257;28;20254;-81
2022/09/30 07:07:10;;;;;;;677.08;360.83;;;11.90;99.90;;;;;;5002680;28;20928;-79
2022/09/30 07:09:37;;;;;;;674.65;348.45;;;11.90;99.90;;;;;;5000696;28;20242;-80
2022/09/30 07:12:05;;;;;;;678.53;369.40;;;12.00;99.90;;;;;;5005545;28;20205;-79
2022/09/30 07:14:32;;;;;;;678.00;365.10;;;12.20;99.90;;;;;;5007517;28;20194;-79
2022/09/30 07:17:02;;;;;;;676.15;367.05;;;12.30;99.90;;;;;;5010523;28;20216;-78
2022/09/30 07:19:29;;;;;;;679.90;378.67;;;12.50;99.90;;;;;;5010045;28;20197;-78
2022/09/30 07:22:25;;;;;;;677.10;367.58;;;12.60;99.90;;;;;;4995439;28;20199;-78
2022/09/30 07:24:42;;;;;;;683.70;395.38;;;12.70;99.90;;;;;;5004263;28;20192;-78
2022/09/30 07:27:09;;;;;;;683.08;403.95;;;12.90;99.90;;;;;;5005312;28;20189;-78
2022/09/30 07:29:36;;;;;;;686.40;411.02;;;13.00;99.90;;;;;;5010649;28;20227;-78
2022/09/30 07:32:04;;;;;;;687.72;420.40;;;13.10;99.90;;;;;;5000936;28;20197;-77
2022/09/30 07:34:31;;;;;;;680.70;408.30;;;13.20;99.90;;;;;;4997539;28;20209;-77
2022/09/30 07:36:57;;;;;;;690.80;435.35;;;13.30;99.90;;;;;;5002364;28;20202;-79
2022/09/30 07:39:24;;;;;;;686.00;432.58;;;13.40;99.90;;;;;;5010215;28;20201;-78
2022/09/30 07:41:53;;;;;;;690.55;434.67;;;13.50;99.90;;;;;;5011073;28;20220;-78
2022/09/30 07:44:20;;;;;;;686.13;414.48;;;13.50;99.90;;;;;;5011945;28;20251;-78
2022/09/30 07:46:47;;;;;;;693.42;446.48;;;13.60;99.90;;;;;;5011665;28;20577;-79
2022/09/30 07:49:23;;;;;;;681.63;400.02;;;13.60;99.90;;;;;;5001529;28;20313;-78
2022/09/30 07:51:50;;;;;;;694.20;447.50;;;13.70;99.90;;;;;;5005821;28;20583;-79
2022/09/30 07:54:21;;;;;;;694.30;446.70;;;13.80;99.90;;;;;;5010222;28;20199;-78
2022/09/30 07:56:49;;;;;;;688.83;430.35;;;13.80;99.90;;;;;;5003623;28;20199;-78
2022/09/30 07:59:16;;;;;;;687.40;429.20;;;13.80;99.90;;;;;;5011223;28;20223;-78
2022/09/30 08:01:42;;;;;;;689.80;432.80;;;13.90;99.90;;;;;;5012484;28;20545;-78
2022/09/30 08:04:10;;;;;;;695.58;461.73;;;13.90;99.90;;;;;;5008515;28;20195;-78
2022/09/30 08:06:41;;;;;;;694.80;456.30;;;14.00;99.90;;;;;;5005775;28;20210;-78
2022/09/30 08:09:09;;;;;;;687.85;428.48;;;14.00;99.90;;;;;;4996522;28;20229;-79
2022/09/30 08:11:37;;;;;;;698.45;467.05;;;14.00;99.90;;;;;;5004431;28;20192;-77
2022/09/30 08:14:03;;;;;;;698.50;470.27;;;14.10;99.90;;;;;;5004032;28;20555;-78
2022/09/30 08:16:30;;;;;;;697.28;472.23;;;14.10;99.90;;;;;;5009436;28;20222;-79
2022/09/30 08:18:59;;;;;;;700.65;475.33;;;14.10;99.90;;;;;;5004617;28;20204;-78
2022/09/30 08:21:26;;;;;;;698.65;458.88;;;14.10;99.90;;;;;;4998972;28;20207;-76
2022/09/30 08:23:54;;;;;;;699.90;466.92;;;14.30;99.90;;;;;;5006573;28;20616;-79
2022/09/30 08:26:21;;;;;;;754.47;672.13;;;14.40;99.90;;;;;;5010514;28;20477;-80
2022/09/30 08:28:49;;;;;;;711.90;540.03;;;14.30;99.90;;;;;;5011906;28;20215;-77
2022/09/30 08:31:18;;;;;;;702.35;501.67;;;14.30;99.90;;;;;;5011617;28;20200;-81
2022/09/30 08:33:45;;;;;;;696.90;470.88;;;14.30;99.90;;;;;;5009745;28;20196;-80
2022/09/30 08:36:13;;;;;;;706.55;494.15;;;14.30;99.90;;;;;;5002573;28;20660;-86
2022/09/30 08:38:40;;;;;;;699.92;485.80;;;14.30;99.90;;;;;;5005388;28;20196;-78
2022/09/30 08:41:23;;;;;;;696.10;478.00;;;14.20;99.90;;;;;;5011800;28;20196;-79
2022/09/30 08:44:01;;;;;;;699.13;483.90;;;14.30;99.90;;;;;;5013355;28;20670;-80
2022/09/30 08:46:40;;;;;;;696.78;481.92;;;14.30;99.90;;;;;;5006186;28;20204;-82
2022/09/30 08:49:20;;;;;;;695.90;475.83;;;14.30;99.90;;;;;;5003914;28;20231;-78
2022/09/30 08:51:49;;;;;;;696.20;480.75;;;14.30;99.90;;;;;;5006103;28;20203;-79
2022/09/30 08:54:20;;;;;;;703.03;499.08;;;14.30;99.90;;;;;;5018581;28;20283;-77
2022/09/30 08:56:48;;;;;;;699.65;496.15;;;14.30;99.90;;;;;;5011290;28;20223;-77
2022/09/30 08:59:29;;;;;;;701.58;497.90;;;14.30;99.90;;;;;;5004611;28;20207;-79
2022/09/30 09:02:09;;;;;;;697.60;486.67;;;14.40;99.90;;;;;;5010708;28;20654;-79
2022/09/30 09:04:36;;;;;;;700.83;494.75;;;14.40;99.90;;;;;;5007003;28;20208;-80
2022/09/30 09:07:07;;;;;;;702.10;494.23;;;14.40;99.90;;;;;;5003727;28;20200;-76
2022/09/30 09:10:00;;;;;;;697.05;488.15;;;14.40;99.90;;;;;;5010800;28;20223;-76
2022/09/30 09:12:34;;;;;;;701.50;494.08;;;14.40;99.90;;;;;;5006392;28;20248;-77
2022/09/30 09:15:38;;;;;;;700.03;500.88;;;14.40;99.90;;;;;;5001284;28;20199;-77
2022/09/30 09:18:22;;;;;;;699.17;486.13;;;14.40;99.90;;;;;;4987410;28;20627;-76
2022/09/30 09:20:55;;;;;;;697.58;490.67;;;14.40;99.90;;;;;;5005641;28;20222;-77
2022/09/30 09:23:22;;;;;;;702.08;502.83;;;14.40;99.90;;;;;;5011559;28;20197;-79
2022/09/30 09:25:51;;;;;;;695.28;472.35;;;14.40;99.90;;;;;;5009807;28;20214;-79
2022/09/30 09:28:32;;;;;;;696.83;467.02;;;14.40;99.90;;;;;;5007008;28;20189;-77
2022/09/30 09:31:00;;;;;;;699.75;494.55;;;14.40;99.90;;;;;;5007131;28;20203;-76
2022/09/30 09:33:29;;;;;;;702.53;499.80;;;14.30;99.90;;;;;;5008284;28;20789;-77
2022/09/30 09:36:05;;;;;;;701.22;501.58;;;14.40;99.90;;;;;;4998414;28;20197;-80
2022/09/30 09:38:38;;;;;;;701.35;495.88;;;14.40;99.90;;;;;;5009373;28;20210;-83
2022/09/30 09:41:17;;;;;;;701.17;500.02;;;14.40;99.90;;;;;;5004524;28;20198;-82
2022/09/30 09:43:52;;;;;;;703.50;500.55;;;14.40;99.90;;;;;;5003268;28;20200;-76
2022/09/30 09:46:24;;;;;;;691.17;486.40;;;14.40;99.90;;;;;;5004051;28;20655;-76
2022/09/30 09:49:27;;;;;;;690.95;486.20;;;14.40;99.90;;;;;;5004873;28;20234;-76
2022/09/30 09:52:05;;;;;;;697.10;482.70;;;14.40;99.90;;;;;;5010388;28;20196;-78
2022/09/30 09:54:35;;;;;;;701.33;492.50;;;14.40;99.90;;;;;;5004027;28;20212;-78
2022/09/30 09:57:08;;;;;;;693.33;468.45;;;14.40;99.90;;;;;;4998659;28;20205;-77
2022/09/30 09:59:38;;;;;;;698.75;490.60;;;14.40;99.90;;;;;;4998921;28;20219;-78
2022/09/30 10:02:22;;;;;;;701.92;505.55;;;14.40;99.90;;;;;;5002747;28;20643;-76
2022/09/30 10:04:58;;;;;;;700.85;490.33;;;14.40;99.90;;;;;;5009132;28;20192;-76
2022/09/30 10:07:26;;;;;;;699.00;492.05;;;14.30;99.90;;;;;;5007161;28;20555;-79
2022/09/30 10:10:08;;;;;;;699.67;507.23;;;14.30;99.90;;;;;;5006245;28;20251;-80
2022/09/30 10:12:35;;;;;;;691.45;472.05;;;14.30;99.90;;;;;;5008132;28;20199;-84
2022/09/30 10:15:15;;;;;;;690.75;494.30;;;14.30;99.90;;;;;;5003760;28;20196;-78
2022/09/30 10:17:42;;;;;;;688.42;485.50;;;14.30;99.90;;;;;;5004774;28;20223;-80
2022/09/30 10:20:22;;;;;;;689.40;489.80;;;14.30;99.90;;;;;;5005730;28;20200;-81
2022/09/30 10:22:49;;;;;;;680.67;463.98;;;14.30;99.90;;;;;;5003013;28;20192;-80
2022/09/30 10:25:21;;;;;;;696.03;498.35;;;14.30;99.90;;;;;;5002156;28;20196;-79
2022/09/30 10:27:54;;;;;;;681.38;485.27;;;14.30;99.90;;;;;;5004877;28;20200;-78
2022/09/30 10:30:35;;;;;;;692.67;494.77;;;14.30;99.90;;;;;;5001236;28;20220;-80
2022/09/30 10:33:03;;;;;;;694.83;478.73;;;14.30;99.90;;;;;;5007703;28;20206;-79
2022/09/30 10:35:30;;;;;;;696.47;490.33;;;14.30;99.90;;;;;;5009533;28;20196;-80
2022/09/30 10:38:00;;;;;;;691.70;460.10;;;14.30;99.90;;;;;;5008254;28;20204;-82
2022/09/30 10:40:29;;;;;;;692.15;478.80;;;14.30;99.90;;;;;;4998846;28;20250;-81
2022/09/30 10:42:56;;;;;;;699.72;487.33;;;14.30;99.90;;;;;;5006709;28;20205;-77
2022/09/30 10:45:28;;;;;;;703.28;495.48;;;14.30;99.90;;;;;;5009794;28;20207;-79
2022/09/30 10:47:57;;;;;;;697.58;477.42;;;14.30;99.90;;;;;;5008800;28;20218;-81
2022/09/30 10:50:26;;;;;;;700.13;483.33;;;14.30;99.90;;;;;;5006103;28;20227;-80
2022/09/30 10:52:56;;;;;;;697.50;477.10;;;14.30;99.90;;;;;;5001136;28;20193;-77
2022/09/30 10:55:31;;;;;;;698.20;478.98;;;14.30;99.90;;;;;;5003592;28;20400;-81
2022/09/30 10:58:19;;;;;;;697.33;481.00;;;14.30;99.90;;;;;;5001963;28;20199;-78
2022/09/30 11:00:49;;;;;;;695.75;478.73;;;14.30;99.90;;;;;;4999382;28;20201;-76
2022/09/30 11:03:22;;;;;;;694.88;465.08;;;14.30;99.90;;;;;;5007066;28;21265;-77
2022/09/30 11:05:49;;;;;;;696.38;474.13;;;14.20;99.90;;;;;;5009193;28;20551;-78
2022/09/30 11:08:22;;;;;;;694.47;472.95;;;14.30;99.90;;;;;;5006840;28;20664;-78
2022/09/30 11:10:58;;;;;;;693.78;471.23;;;14.30;99.90;;;;;;5006515;28;20222;-76
2022/09/30 11:13:31;;;;;;;690.08;461.77;;;14.20;99.90;;;;;;5008049;28;20207;-77
2022/09/30 11:16:09;;;;;;;690.30;452.23;;;14.30;99.90;;;;;;5000764;28;20205;-78
2022/09/30 11:18:44;;;;;;;696.08;463.38;;;14.30;99.90;;;;;;5004348;28;20211;-76
2022/09/30 11:21:16;;;;;;;695.67;474.33;;;14.20;99.90;;;;;;5008727;28;20214;-79
2022/09/30 11:23:46;;;;;;;695.17;474.38;;;14.20;99.90;;;;;;5008901;28;20200;-78
2022/09/30 11:26:27;;;;;;;694.35;466.75;;;14.20;99.90;;;;;;5008280;28;20666;-79
2022/09/30 11:29:15;;;;;;;697.33;475.38;;;14.20;99.90;;;;;;5008590;28;20212;-77
2022/09/30 11:31:54;;;;;;;694.03;465.10;;;14.30;99.90;;;;;;5000259;28;20194;-78
2022/09/30 11:34:34;;;;;;;695.22;471.42;;;14.30;99.90;;;;;;5008591;28;20595;-77
2022/09/30 11:37:08;;;;;;;693.72;458.38;;;14.30;99.90;;;;;;5008286;28;20200;-76
2022/09/30 11:40:04;;;;;;;696.08;472.10;;;14.30;99.90;;;;;;5007671;28;20204;-77
2022/09/30 11:42:41;;;;;;;691.25;460.20;;;14.30;99.90;;;;;;5001247;28;20235;-78
2022/09/30 11:45:23;;;;;;;699.63;474.60;;;14.30;99.90;;;;;;5004522;28;20215;-81
2022/09/30 11:48:07;;;;;;;696.97;473.60;;;14.30;99.90;;;;;;5006816;28;20203;-81
2022/09/30 11:50:45;;;;;;;694.65;464.88;;;14.30;99.90;;;;;;5000990;28;20224;-75
2022/09/30 11:53:23;;;;;;;700.45;482.50;;;14.30;99.90;;;;;;5005784;28;20191;-92
2022/09/30 11:56:12;;;;;;;693.47;469.38;;;14.30;99.90;;;;;;5008880;28;20198;-76
2022/09/30 11:58:44;;;;;;;694.53;451.75;;;14.30;99.90;;;;;;5005973;28;20196;-79
2022/09/30 12:01:22;;;;;;;695.13;470.88;;;14.30;99.90;;;;;;5004533;28;20203;-78
2022/09/30 12:03:58;;;;;;;693.58;468.88;;;14.30;99.90;;;;;;5008850;28;20195;-77
2022/09/30 12:06:33;;;;;;;694.55;477.42;;;14.30;99.90;;;;;;5012571;28;20583;-76
2022/09/30 12:09:06;;;;;;;695.35;474.63;;;14.30;99.90;;;;;;5010581;28;20235;-76
2022/09/30 12:11:39;;;;;;;695.60;474.42;;;14.30;99.90;;;;;;5006655;28;20658;-77
2022/09/30 12:14:15;;;;;;;695.40;471.40;;;14.40;99.90;;;;;;5012515;28;20234;-76
2022/09/30 12:16:44;;;;;;;693.63;461.25;;;14.30;99.90;;;;;;5006068;28;20212;-76
2022/09/30 12:19:16;;;;;;;693.95;463.80;;;14.30;99.90;;;;;;4998051;28;20193;-76
2022/09/30 12:21:52;;;;;;;696.67;478.05;;;14.30;99.90;;;;;;5010227;28;20207;-77
2022/09/30 12:24:23;;;;;;;693.22;465.33;;;14.30;99.90;;;;;;5013266;28;20614;-76
2022/09/30 12:26:50;;;;;;;697.42;482.33;;;14.40;99.90;;;;;;5010559;28;20210;-77
2022/09/30 12:32:55;;;;;;;689.97;458.42;;;14.30;99.90;;;;;;5007467;28;20207;-76
2022/09/30 12:35:42;;;;;;;691.35;461.13;;;14.30;99.90;;;;;;4993728;28;20528;-77